KJXI

Fox Stephens Field - Gilmer Municipal Airport

Gilmer, Texas, USA
METAR KJXI 271135Z AUTO 00000KT 7SM CLR 20/20 A2984 RMK AO2 T02040204
Observed Flight Rules
May-27 @ 11:35 UTC (25 minutes ago) Visual Flight Rules
Visibility Clouds
7 miles
  • Clear skies
Temperatures Readings
Current 20°C / 68°F
Dewpoint 20°C / 68°F
Humidity 100%
Altimeter 29.84" Hg
Pressure 1010 hPa
Elevation 127
METAR KJXI 271135Z AUTO 00000KT 7SM CLR 20/20 A2984 RMK AO2 T02040204
Observed Flight Rules
May-27 @ 11:35 UTC
(25 minutes ago)
VFR
Clouds
  • Clear skies
Temperature Dewpoint
20°C / 68°F 20°C / 68°F
Humidity Altimeter Pressure
100% 29.84" Hg 1010 hPa